Terminal Aerodrome Forecast
Issued by NWS

Home | Current Version | Previous Version | Graphics & Text | Print | Product List | Glossary On
Versions: 1 2 3 4 5 6 7 8 9 10 11 12 13 14 15 16 17 18
000
FTUS43 KBIS 202300
TAFMOT
TAF
KMOT 202327Z 2100/2124 VRB05KT P6SM SCT100
     FM211200 03009KT P6SM SCT100 BKN120=

USA.gov is the U.S. government's official web portal to all federal, state and local government web resources and services.